sensor_id;sensor_type;location;lat;lon;timestamp;pressure;altitude;pressure_sealevel;temperature;humidity
35577;BME280;21680;52.400;16.920;2023-04-27T00:00:36;100868.98;;;4.07;60.53
35577;BME280;21680;52.400;16.920;2023-04-27T00:03:01;100868.06;;;4.10;60.68
35577;BME280;21680;52.400;16.920;2023-04-27T00:05:38;100868.74;;;4.11;60.64
35577;BME280;21680;52.400;16.920;2023-04-27T00:08:05;100868.38;;;4.12;60.54
35577;BME280;21680;52.400;16.920;2023-04-27T00:10:31;100869.27;;;4.12;60.51
35577;BME280;21680;52.400;16.920;2023-04-27T00:12:57;100865.20;;;4.12;60.71
35577;BME280;21680;52.400;16.920;2023-04-27T00:15:22;100865.92;;;4.11;60.69
35577;BME280;21680;52.400;16.920;2023-04-27T00:17:48;100863.82;;;4.09;60.73
35577;BME280;21680;52.400;16.920;2023-04-27T00:20:13;100859.06;;;4.08;60.88
35577;BME280;21680;52.400;16.920;2023-04-27T00:22:40;100859.78;;;4.07;60.85
35577;BME280;21680;52.400;16.920;2023-04-27T00:25:05;100859.24;;;4.08;60.89
35577;BME280;21680;52.400;16.920;2023-04-27T00:27:31;100856.41;;;4.08;61.12
35577;BME280;21680;52.400;16.920;2023-04-27T00:29:57;100856.59;;;4.08;61.25
35577;BME280;21680;52.400;16.920;2023-04-27T00:32:22;100858.52;;;4.08;61.07
35577;BME280;21680;52.400;16.920;2023-04-27T00:34:47;100858.71;;;4.08;61.35
35577;BME280;21680;52.400;16.920;2023-04-27T00:37:13;100860.30;;;4.08;61.31
35577;BME280;21680;52.400;16.920;2023-04-27T00:39:38;100860.46;;;4.09;61.29
35577;BME280;21680;52.400;16.920;2023-04-27T00:42:03;100862.20;;;4.12;61.30
35577;BME280;21680;52.400;16.920;2023-04-27T00:44:29;100862.70;;;4.14;61.64
35577;BME280;21680;52.400;16.920;2023-04-27T00:46:54;100862.86;;;4.15;61.39
35577;BME280;21680;52.400;16.920;2023-04-27T00:49:20;100863.89;;;4.17;61.50
35577;BME280;21680;52.400;16.920;2023-04-27T00:51:49;100865.13;;;4.17;61.51
35577;BME280;21680;52.400;16.920;2023-04-27T00:54:20;100865.47;;;4.17;61.56
35577;BME280;21680;52.400;16.920;2023-04-27T00:56:52;100863.16;;;4.19;61.69
35577;BME280;21680;52.400;16.920;2023-04-27T00:59:18;100864.39;;;4.19;61.67
35577;BME280;21680;52.400;16.920;2023-04-27T01:01:48;100863.67;;;4.20;61.91
35577;BME280;21680;52.400;16.920;2023-04-27T01:04:13;100866.13;;;4.21;61.91
35577;BME280;21680;52.400;16.920;2023-04-27T01:06:39;100865.77;;;4.22;62.08
35577;BME280;21680;52.400;16.920;2023-04-27T01:09:04;100868.94;;;4.23;62.12
35577;BME280;21680;52.400;16.920;2023-04-27T01:11:31;100866.98;;;4.23;62.01
35577;BME280;21680;52.400;16.920;2023-04-27T01:13:57;100869.80;;;4.24;62.10
35577;BME280;21680;52.400;16.920;2023-04-27T01:16:27;100873.86;;;4.26;62.28
35577;BME280;21680;52.400;16.920;2023-04-27T01:18:53;100870.33;;;4.25;62.22
35577;BME280;21680;52.400;16.920;2023-04-27T01:21:18;100870.84;;;4.27;62.35
35577;BME280;21680;52.400;16.920;2023-04-27T01:23:43;100870.28;;;4.28;62.34
35577;BME280;21680;52.400;16.920;2023-04-27T01:26:08;100867.44;;;4.30;62.37
35577;BME280;21680;52.400;16.920;2023-04-27T01:28:36;100872.88;;;4.32;62.50
35577;BME280;21680;52.400;16.920;2023-04-27T01:31:01;100874.81;;;4.33;62.53
35577;BME280;21680;52.400;16.920;2023-04-27T01:33:26;100874.80;;;4.33;62.71
35577;BME280;21680;52.400;16.920;2023-04-27T01:35:52;100874.44;;;4.35;62.64
35577;BME280;21680;52.400;16.920;2023-04-27T01:38:17;100877.96;;;4.36;62.74
35577;BME280;21680;52.400;16.920;2023-04-27T01:40:42;100876.73;;;4.35;62.72
35577;BME280;21680;52.400;16.920;2023-04-27T01:43:07;100876.75;;;4.34;62.88
35577;BME280;21680;52.400;16.920;2023-04-27T01:45:33;100883.28;;;4.35;62.74
35577;BME280;21680;52.400;16.920;2023-04-27T01:47:58;100884.15;;;4.35;62.99
35577;BME280;21680;52.400;16.920;2023-04-27T01:50:23;100883.45;;;4.35;63.01
35577;BME280;21680;52.400;16.920;2023-04-27T01:52:48;100881.34;;;4.35;62.97
35577;BME280;21680;52.400;16.920;2023-04-27T01:55:13;100882.73;;;4.36;63.13
35577;BME280;21680;52.400;16.920;2023-04-27T01:57:39;100885.90;;;4.37;63.05
35577;BME280;21680;52.400;16.920;2023-04-27T02:00:05;100886.97;;;4.37;63.10
35577;BME280;21680;52.400;16.920;2023-04-27T02:02:31;100892.62;;;4.38;63.28
35577;BME280;21680;52.400;16.920;2023-04-27T02:04:56;100887.67;;;4.37;63.28
35577;BME280;21680;52.400;16.920;2023-04-27T02:07:22;100888.76;;;4.35;63.21
35577;BME280;21680;52.400;16.920;2023-04-27T02:09:47;100888.61;;;4.33;63.42
35577;BME280;21680;52.400;16.920;2023-04-27T02:12:12;100889.84;;;4.34;63.44
35577;BME280;21680;52.400;16.920;2023-04-27T02:14:38;100891.23;;;4.35;63.39
35577;BME280;21680;52.400;16.920;2023-04-27T02:17:03;100890.38;;;4.34;63.65
35577;BME280;21680;52.400;16.920;2023-04-27T02:19:28;100891.45;;;4.33;63.59
35577;BME280;21680;52.400;16.920;2023-04-27T02:21:54;100893.94;;;4.33;63.72
35577;BME280;21680;52.400;16.920;2023-04-27T02:24:19;100895.70;;;4.32;63.67
35577;BME280;21680;52.400;16.920;2023-04-27T02:26:45;100900.67;;;4.31;63.98
35577;BME280;21680;52.400;16.920;2023-04-27T02:29:10;100901.02;;;4.31;63.93
35577;BME280;21680;52.400;16.920;2023-04-27T02:31:35;100905.08;;;4.32;63.97
35577;BME280;21680;52.400;16.920;2023-04-27T02:34:00;100907.02;;;4.32;63.86
35577;BME280;21680;52.400;16.920;2023-04-27T02:36:26;100899.95;;;4.32;64.01
35577;BME280;21680;52.400;16.920;2023-04-27T02:38:52;100901.88;;;4.34;64.14
35577;BME280;21680;52.400;16.920;2023-04-27T02:41:17;100899.40;;;4.34;64.21
35577;BME280;21680;52.400;16.920;2023-04-27T02:43:42;100897.99;;;4.33;63.96
35577;BME280;21680;52.400;16.920;2023-04-27T02:46:08;100901.71;;;4.33;64.19
35577;BME280;21680;52.400;16.920;2023-04-27T02:48:33;100901.33;;;4.34;64.39
35577;BME280;21680;52.400;16.920;2023-04-27T02:51:02;100902.04;;;4.35;64.36
35577;BME280;21680;52.400;16.920;2023-04-27T02:53:27;100902.92;;;4.34;64.36
35577;BME280;21680;52.400;16.920;2023-04-27T02:55:53;100903.65;;;4.33;64.54
35577;BME280;21680;52.400;16.920;2023-04-27T02:58:18;100906.11;;;4.34;64.62
35577;BME280;21680;52.400;16.920;2023-04-27T03:00:44;100907.91;;;4.32;64.75
35577;BME280;21680;52.400;16.920;2023-04-27T03:03:09;100912.52;;;4.31;64.80
35577;BME280;21680;52.400;16.920;2023-04-27T03:05:35;100914.28;;;4.32;64.82
35577;BME280;21680;52.400;16.920;2023-04-27T03:08:01;100917.98;;;4.32;64.91
35577;BME280;21680;52.400;16.920;2023-04-27T03:10:26;100921.52;;;4.32;64.92
35577;BME280;21680;52.400;16.920;2023-04-27T03:12:51;100920.63;;;4.33;65.15
35577;BME280;21680;52.400;16.920;2023-04-27T03:15:17;100928.02;;;4.36;65.33
35577;BME280;21680;52.400;16.920;2023-04-27T03:17:42;100923.95;;;4.36;65.24
35577;BME280;21680;52.400;16.920;2023-04-27T03:20:08;100929.25;;;4.37;65.36
35577;BME280;21680;52.400;16.920;2023-04-27T03:22:37;100929.60;;;4.37;65.47
35577;BME280;21680;52.400;16.920;2023-04-27T03:25:03;100928.55;;;4.37;65.65
35577;BME280;21680;52.400;16.920;2023-04-27T03:27:29;100929.62;;;4.36;65.61
35577;BME280;21680;52.400;16.920;2023-04-27T03:29:54;100932.62;;;4.36;65.63
35577;BME280;21680;52.400;16.920;2023-04-27T03:32:20;100935.98;;;4.36;65.65
35577;BME280;21680;52.400;16.920;2023-04-27T03:34:45;100938.64;;;4.36;65.49
35577;BME280;21680;52.400;16.920;2023-04-27T03:37:11;100938.46;;;4.36;65.57
35577;BME280;21680;52.400;16.920;2023-04-27T03:39:36;100941.11;;;4.36;65.85
35577;BME280;21680;52.400;16.920;2023-04-27T03:42:01;100942.35;;;4.36;65.90
35577;BME280;21680;52.400;16.920;2023-04-27T03:44:27;100945.91;;;4.34;65.89
35577;BME280;21680;52.400;16.920;2023-04-27T03:46:52;100947.52;;;4.34;66.02
35577;BME280;21680;52.400;16.920;2023-04-27T03:49:18;100948.05;;;4.33;66.28
35577;BME280;21680;52.400;16.920;2023-04-27T03:51:43;100948.06;;;4.32;66.38
35577;BME280;21680;52.400;16.920;2023-04-27T03:54:08;100946.47;;;4.32;66.43
35577;BME280;21680;52.400;16.920;2023-04-27T03:56:36;100943.96;;;4.34;66.55
35577;BME280;21680;52.400;16.920;2023-04-27T03:59:03;100946.94;;;4.37;66.27
35577;BME280;21680;52.400;16.920;2023-04-27T04:01:28;100950.98;;;4.40;66.48
35577;BME280;21680;52.400;16.920;2023-04-27T04:03:55;100952.35;;;4.42;66.55
35577;BME280;21680;52.400;16.920;2023-04-27T04:06:20;100952.70;;;4.43;66.65
35577;BME280;21680;52.400;16.920;2023-04-27T04:08:45;100952.16;;;4.44;66.70
35577;BME280;21680;52.400;16.920;2023-04-27T04:11:10;100950.21;;;4.44;66.62
35577;BME280;21680;52.400;16.920;2023-04-27T04:13:36;100957.07;;;4.47;66.55
35577;BME280;21680;52.400;16.920;2023-04-27T04:16:06;100959.86;;;4.49;66.80
35577;BME280;21680;52.400;16.920;2023-04-27T04:18:33;100966.55;;;4.52;66.85
35577;BME280;21680;52.400;16.920;2023-04-27T04:20:58;100966.69;;;4.55;66.71
35577;BME280;21680;52.400;16.920;2023-04-27T04:23:23;100968.39;;;4.60;66.78
35577;BME280;21680;52.400;16.920;2023-04-27T04:25:50;100973.88;;;4.60;66.93
35577;BME280;21680;52.400;16.920;2023-04-27T04:28:15;100970.52;;;4.60;67.00
35577;BME280;21680;52.400;16.920;2023-04-27T04:30:41;100972.11;;;4.60;66.84
35577;BME280;21680;52.400;16.920;2023-04-27T04:33:07;100975.08;;;4.63;66.86
35577;BME280;21680;52.400;16.920;2023-04-27T04:35:32;100975.92;;;4.65;67.01
35577;BME280;21680;52.400;16.920;2023-04-27T04:37:58;100982.84;;;4.65;66.96
35577;BME280;21680;52.400;16.920;2023-04-27T04:40:24;100980.55;;;4.64;66.98
35577;BME280;21680;52.400;16.920;2023-04-27T04:42:49;100980.89;;;4.65;66.86
35577;BME280;21680;52.400;16.920;2023-04-27T04:45:15;100983.88;;;4.67;67.03
35577;BME280;21680;52.400;16.920;2023-04-27T04:47:40;100988.29;;;4.68;67.03
35577;BME280;21680;52.400;16.920;2023-04-27T04:50:06;100983.67;;;4.68;66.83
35577;BME280;21680;52.400;16.920;2023-04-27T04:52:34;100986.29;;;4.71;66.92
35577;BME280;21680;52.400;16.920;2023-04-27T04:55:02;100977.04;;;4.74;67.13
35577;BME280;21680;52.400;16.920;2023-04-27T04:57:28;100985.65;;;4.79;67.22
35577;BME280;21680;52.400;16.920;2023-04-27T04:59:54;100988.77;;;4.83;67.19
35577;BME280;21680;52.400;16.920;2023-04-27T05:02:19;100990.66;;;4.87;67.26
35577;BME280;21680;52.400;16.920;2023-04-27T05:04:44;100984.83;;;4.87;67.28
35577;BME280;21680;52.400;16.920;2023-04-27T05:07:10;100986.73;;;4.91;67.34
35577;BME280;21680;52.400;16.920;2023-04-27T05:09:36;100987.71;;;4.95;67.15
35577;BME280;21680;52.400;16.920;2023-04-27T05:12:01;100986.25;;;4.99;67.31
35577;BME280;21680;52.400;16.920;2023-04-27T05:14:26;100993.79;;;5.04;67.34
35577;BME280;21680;52.400;16.920;2023-04-27T05:16:51;100994.05;;;5.09;67.48
35577;BME280;21680;52.400;16.920;2023-04-27T05:19:17;100997.15;;;5.15;67.38
35577;BME280;21680;52.400;16.920;2023-04-27T05:21:44;100999.16;;;5.21;67.39
35577;BME280;21680;52.400;16.920;2023-04-27T05:24:10;101003.98;;;5.30;67.38
35577;BME280;21680;52.400;16.920;2023-04-27T05:26:37;101008.11;;;5.37;67.45
35577;BME280;21680;52.400;16.920;2023-04-27T05:29:02;101012.47;;;5.41;67.30
35577;BME280;21680;52.400;16.920;2023-04-27T05:31:28;101016.64;;;5.46;67.44
35577;BME280;21680;52.400;16.920;2023-04-27T05:33:53;101015.71;;;5.49;67.38
35577;BME280;21680;52.400;16.920;2023-04-27T05:36:18;101020.42;;;5.53;67.50
35577;BME280;21680;52.400;16.920;2023-04-27T05:38:44;101019.45;;;5.59;67.36
35577;BME280;21680;52.400;16.920;2023-04-27T05:41:09;101022.41;;;5.62;67.31
35577;BME280;21680;52.400;16.920;2023-04-27T05:43:35;101025.68;;;5.67;67.45
35577;BME280;21680;52.400;16.920;2023-04-27T05:46:03;101027.92;;;5.70;67.36
35577;BME280;21680;52.400;16.920;2023-04-27T05:48:28;101029.64;;;5.74;67.52
35577;BME280;21680;52.400;16.920;2023-04-27T05:51:01;101035.98;;;5.76;67.60
35577;BME280;21680;52.400;16.920;2023-04-27T05:53:28;101033.80;;;5.79;67.58
35577;BME280;21680;52.400;16.920;2023-04-27T05:55:55;101037.61;;;5.85;67.55
35577;BME280;21680;52.400;16.920;2023-04-27T05:58:22;101034.35;;;5.90;67.58
35577;BME280;21680;52.400;16.920;2023-04-27T06:00:47;101034.08;;;5.95;67.47
35577;BME280;21680;52.400;16.920;2023-04-27T06:03:13;101033.44;;;6.01;67.57
35577;BME280;21680;52.400;16.920;2023-04-27T06:05:38;101034.74;;;6.07;67.49
35577;BME280;21680;52.400;16.920;2023-04-27T06:08:05;101031.80;;;6.13;67.43
35577;BME280;21680;52.400;16.920;2023-04-27T06:10:30;101035.19;;;6.21;67.50
35577;BME280;21680;52.400;16.920;2023-04-27T06:12:56;101038.67;;;6.25;67.32
35577;BME280;21680;52.400;16.920;2023-04-27T06:15:21;101033.48;;;6.28;67.40
35577;BME280;21680;52.400;16.920;2023-04-27T06:17:46;101033.45;;;6.29;67.29
35577;BME280;21680;52.400;16.920;2023-04-27T06:20:11;101036.42;;;6.31;67.22
35577;BME280;21680;52.400;16.920;2023-04-27T06:22:37;101036.89;;;6.34;67.12
35577;BME280;21680;52.400;16.920;2023-04-27T06:25:04;101037.17;;;6.38;67.18
35577;BME280;21680;52.400;16.920;2023-04-27T06:27:31;101033.73;;;6.41;66.96
35577;BME280;21680;52.400;16.920;2023-04-27T06:29:57;101035.83;;;6.43;66.97
35577;BME280;21680;52.400;16.920;2023-04-27T06:32:22;101032.50;;;6.49;66.93
35577;BME280;21680;52.400;16.920;2023-04-27T06:34:48;101034.57;;;6.53;66.83
35577;BME280;21680;52.400;16.920;2023-04-27T06:37:13;101030.82;;;6.53;66.66
35577;BME280;21680;52.400;16.920;2023-04-27T06:39:45;101029.84;;;6.58;66.51
35577;BME280;21680;52.400;16.920;2023-04-27T06:42:10;101030.11;;;6.62;66.48
35577;BME280;21680;52.400;16.920;2023-04-27T06:44:36;101035.42;;;6.62;66.27
35577;BME280;21680;52.400;16.920;2023-04-27T06:47:02;101038.06;;;6.64;66.00
35577;BME280;21680;52.400;16.920;2023-04-27T06:49:27;101038.97;;;6.63;66.12
35577;BME280;21680;52.400;16.920;2023-04-27T06:51:52;101040.16;;;6.74;66.13
35577;BME280;21680;52.400;16.920;2023-04-27T06:54:19;101041.46;;;6.88;66.08
35577;BME280;21680;52.400;16.920;2023-04-27T06:56:44;101045.63;;;6.93;65.87
35577;BME280;21680;52.400;16.920;2023-04-27T06:59:10;101045.44;;;6.84;65.56
35577;BME280;21680;52.400;16.920;2023-04-27T07:01:36;101039.48;;;6.73;65.51
35577;BME280;21680;52.400;16.920;2023-04-27T07:04:02;101046.30;;;6.69;65.58
35577;BME280;21680;52.400;16.920;2023-04-27T07:06:29;101044.65;;;6.63;65.33
35577;BME280;21680;52.400;16.920;2023-04-27T07:08:55;101037.73;;;6.62;65.52
35577;BME280;21680;52.400;16.920;2023-04-27T07:11:22;101038.42;;;6.64;65.47
35577;BME280;21680;52.400;16.920;2023-04-27T07:13:48;101038.83;;;6.69;65.46
35577;BME280;21680;52.400;16.920;2023-04-27T07:16:15;101041.96;;;6.73;65.39
35577;BME280;21680;52.400;16.920;2023-04-27T07:18:41;101037.73;;;6.71;65.28
35577;BME280;21680;52.400;16.920;2023-04-27T07:21:06;101039.35;;;6.70;65.19
35577;BME280;21680;52.400;16.920;2023-04-27T07:23:32;101038.43;;;6.71;65.13
35577;BME280;21680;52.400;16.920;2023-04-27T07:25:57;101038.35;;;6.75;65.14
35577;BME280;21680;52.400;16.920;2023-04-27T07:28:23;101043.50;;;6.83;65.17
35577;BME280;21680;52.400;16.920;2023-04-27T07:30:48;101045.98;;;6.92;64.99
35577;BME280;21680;52.400;16.920;2023-04-27T07:33:14;101050.55;;;6.94;64.73
35577;BME280;21680;52.400;16.920;2023-04-27T07:35:41;101047.77;;;6.91;64.42
35577;BME280;21680;52.400;16.920;2023-04-27T07:38:06;101049.73;;;6.92;64.40
35577;BME280;21680;52.400;16.920;2023-04-27T07:40:32;101047.98;;;6.90;63.69
35577;BME280;21680;52.400;16.920;2023-04-27T07:42:58;101043.96;;;6.87;63.67
35577;BME280;21680;52.400;16.920;2023-04-27T07:45:25;101045.70;;;6.96;63.75
35577;BME280;21680;52.400;16.920;2023-04-27T07:47:59;101045.73;;;7.03;63.34
35577;BME280;21680;52.400;16.920;2023-04-27T07:50:27;101043.20;;;7.05;63.00
35577;BME280;21680;52.400;16.920;2023-04-27T07:52:52;101041.69;;;7.09;62.88
35577;BME280;21680;52.400;16.920;2023-04-27T07:55:19;101045.42;;;7.17;62.66
35577;BME280;21680;52.400;16.920;2023-04-27T07:57:46;101045.11;;;7.22;62.18
35577;BME280;21680;52.400;16.920;2023-04-27T08:00:12;101047.25;;;7.30;61.56
35577;BME280;21680;52.400;16.920;2023-04-27T08:02:37;101046.11;;;7.33;60.05
35577;BME280;21680;52.400;16.920;2023-04-27T08:05:03;101038.20;;;7.36;60.09
35577;BME280;21680;52.400;16.920;2023-04-27T08:07:28;101036.12;;;7.42;60.00
35577;BME280;21680;52.400;16.920;2023-04-27T08:09:54;101040.17;;;7.50;59.79
35577;BME280;21680;52.400;16.920;2023-04-27T08:12:19;101041.79;;;7.58;59.14
35577;BME280;21680;52.400;16.920;2023-04-27T08:14:46;101036.59;;;7.59;58.44
35577;BME280;21680;52.400;16.920;2023-04-27T08:17:11;101042.73;;;7.62;57.29
35577;BME280;21680;52.400;16.920;2023-04-27T08:19:36;101043.70;;;7.66;56.78
35577;BME280;21680;52.400;16.920;2023-04-27T08:22:02;101041.73;;;7.67;56.69
35577;BME280;21680;52.400;16.920;2023-04-27T08:24:27;101038.77;;;7.64;56.67
35577;BME280;21680;52.400;16.920;2023-04-27T08:26:53;101047.11;;;7.65;56.85
35577;BME280;21680;52.400;16.920;2023-04-27T08:29:18;101046.19;;;7.73;56.73
35577;BME280;21680;52.400;16.920;2023-04-27T08:31:43;101043.98;;;7.82;56.71
35577;BME280;21680;52.400;16.920;2023-04-27T08:34:08;101050.61;;;7.94;56.18
35577;BME280;21680;52.400;16.920;2023-04-27T08:36:34;101043.77;;;7.97;56.04
35577;BME280;21680;52.400;16.920;2023-04-27T08:38:59;101047.55;;;8.01;55.69
35577;BME280;21680;52.400;16.920;2023-04-27T08:41:24;101044.38;;;8.07;55.63
35577;BME280;21680;52.400;16.920;2023-04-27T08:43:50;101040.43;;;8.15;55.68
35577;BME280;21680;52.400;16.920;2023-04-27T08:46:19;101046.88;;;8.27;54.52
35577;BME280;21680;52.400;16.920;2023-04-27T08:48:48;101045.30;;;8.40;54.58
35577;BME280;21680;52.400;16.920;2023-04-27T08:51:14;101036.16;;;8.48;54.63
35577;BME280;21680;52.400;16.920;2023-04-27T08:53:47;101039.46;;;8.57;54.47
35577;BME280;21680;52.400;16.920;2023-04-27T08:56:13;101050.90;;;8.62;53.93
35577;BME280;21680;52.400;16.920;2023-04-27T08:58:39;101047.86;;;8.68;53.15
35577;BME280;21680;52.400;16.920;2023-04-27T09:01:05;101046.46;;;8.73;53.26
35577;BME280;21680;52.400;16.920;2023-04-27T09:03:32;101042.45;;;8.83;52.76
35577;BME280;21680;52.400;16.920;2023-04-27T09:05:58;101043.05;;;8.86;52.02
35577;BME280;21680;52.400;16.920;2023-04-27T09:08:24;101042.19;;;8.92;51.29
35577;BME280;21680;52.400;16.920;2023-04-27T09:10:52;101038.76;;;8.99;51.50
35577;BME280;21680;52.400;16.920;2023-04-27T09:13:19;101037.55;;;9.09;51.52
35577;BME280;21680;52.400;16.920;2023-04-27T09:15:50;101034.55;;;9.08;50.36
35577;BME280;21680;52.400;16.920;2023-04-27T09:18:21;101036.33;;;8.96;50.79
35577;BME280;21680;52.400;16.920;2023-04-27T09:20:49;101041.68;;;8.91;50.78
35577;BME280;21680;52.400;16.920;2023-04-27T09:26:02;101029.10;;;8.94;51.13
35577;BME280;21680;52.400;16.920;2023-04-27T09:28:29;101028.70;;;9.01;51.07
35577;BME280;21680;52.400;16.920;2023-04-27T09:30:57;101030.87;;;9.06;50.91
35577;BME280;21680;52.400;16.920;2023-04-27T09:33:24;101029.31;;;9.04;50.75
35577;BME280;21680;52.400;16.920;2023-04-27T09:35:51;101031.39;;;9.07;50.84
35577;BME280;21680;52.400;16.920;2023-04-27T09:38:18;101026.33;;;9.09;50.47
35577;BME280;21680;52.400;16.920;2023-04-27T09:40:44;101024.51;;;9.10;50.14
35577;BME280;21680;52.400;16.920;2023-04-27T09:43:10;101025.75;;;9.16;49.52
35577;BME280;21680;52.400;16.920;2023-04-27T09:45:36;101032.33;;;9.22;49.35
35577;BME280;21680;52.400;16.920;2023-04-27T09:48:04;101027.27;;;9.35;49.72
35577;BME280;21680;52.400;16.920;2023-04-27T09:50:34;101033.27;;;9.54;49.63
35577;BME280;21680;52.400;16.920;2023-04-27T09:53:00;101031.95;;;9.61;49.03
35577;BME280;21680;52.400;16.920;2023-04-27T09:59:15;101026.55;;;9.68;48.27
35577;BME280;21680;52.400;16.920;2023-04-27T10:01:54;101023.95;;;9.60;47.54
35577;BME280;21680;52.400;16.920;2023-04-27T10:07:11;101018.51;;;9.47;47.93
35577;BME280;21680;52.400;16.920;2023-04-27T10:09:47;101023.01;;;9.46;47.65
35577;BME280;21680;52.400;16.920;2023-04-27T10:14:53;101022.12;;;9.34;47.01
35577;BME280;21680;52.400;16.920;2023-04-27T10:17:35;101021.19;;;9.41;47.00
35577;BME280;21680;52.400;16.920;2023-04-27T10:20:05;101028.88;;;9.46;46.07
35577;BME280;21680;52.400;16.920;2023-04-27T10:22:45;101030.11;;;9.41;44.92
35577;BME280;21680;52.400;16.920;2023-04-27T10:25:22;101033.23;;;9.38;44.14
35577;BME280;21680;52.400;16.920;2023-04-27T10:27:58;101027.02;;;9.37;43.87
35577;BME280;21680;52.400;16.920;2023-04-27T10:30:35;101042.73;;;9.37;43.24
35577;BME280;21680;52.400;16.920;2023-04-27T10:33:05;101045.54;;;9.32;43.14
35577;BME280;21680;52.400;16.920;2023-04-27T10:35:36;101037.55;;;9.31;42.93
35577;BME280;21680;52.400;16.920;2023-04-27T10:38:14;101034.07;;;9.34;43.35
35577;BME280;21680;52.400;16.920;2023-04-27T10:40:43;101030.30;;;9.40;43.05
35577;BME280;21680;52.400;16.920;2023-04-27T10:43:09;101029.02;;;9.47;42.44
35577;BME280;21680;52.400;16.920;2023-04-27T10:45:35;101031.58;;;9.67;42.93
35577;BME280;21680;52.400;16.920;2023-04-27T10:48:00;101031.94;;;9.93;42.52
35577;BME280;21680;52.400;16.920;2023-04-27T10:50:26;101029.95;;;9.93;42.39
35577;BME280;21680;52.400;16.920;2023-04-27T10:52:52;101025.36;;;9.97;42.59
35577;BME280;21680;52.400;16.920;2023-04-27T10:55:19;101025.55;;;10.12;42.55
35577;BME280;21680;52.400;16.920;2023-04-27T10:57:50;101018.86;;;10.20;42.20
35577;BME280;21680;52.400;16.920;2023-04-27T11:02:52;101034.29;;;10.33;41.38
35577;BME280;21680;52.400;16.920;2023-04-27T11:05:19;101036.81;;;10.23;41.89
35577;BME280;21680;52.400;16.920;2023-04-27T11:07:46;101025.40;;;10.27;42.19
35577;BME280;21680;52.400;16.920;2023-04-27T11:10:16;101021.70;;;10.40;42.44
35577;BME280;21680;52.400;16.920;2023-04-27T11:12:42;101034.09;;;10.52;42.20
35577;BME280;21680;52.400;16.920;2023-04-27T11:15:09;101040.54;;;10.47;41.24
35577;BME280;21680;52.400;16.920;2023-04-27T11:17:35;101034.77;;;10.30;40.88
35577;BME280;21680;52.400;16.920;2023-04-27T11:20:00;101037.55;;;10.22;41.27
35577;BME280;21680;52.400;16.920;2023-04-27T11:22:25;101031.72;;;10.25;41.53
35577;BME280;21680;52.400;16.920;2023-04-27T11:24:51;101041.20;;;10.30;41.72
35577;BME280;21680;52.400;16.920;2023-04-27T11:27:17;101039.37;;;10.21;41.33
35577;BME280;21680;52.400;16.920;2023-04-27T11:29:44;101041.69;;;10.10;40.73
35577;BME280;21680;52.400;16.920;2023-04-27T11:32:20;101046.37;;;10.09;41.06
35577;BME280;21680;52.400;16.920;2023-04-27T11:34:49;101052.65;;;10.08;40.40
35577;BME280;21680;52.400;16.920;2023-04-27T11:37:20;101051.64;;;10.01;39.93
35577;BME280;21680;52.400;16.920;2023-04-27T11:39:48;101056.75;;;9.98;39.96
35577;BME280;21680;52.400;16.920;2023-04-27T11:42:17;101051.14;;;10.00;40.22
35577;BME280;21680;52.400;16.920;2023-04-27T11:44:54;101050.73;;;10.06;40.48
35577;BME280;21680;52.400;16.920;2023-04-27T11:47:20;101050.12;;;10.25;40.92
35577;BME280;21680;52.400;16.920;2023-04-27T11:49:54;101057.29;;;10.44;41.02
35577;BME280;21680;52.400;16.920;2023-04-27T11:52:33;101057.00;;;10.47;41.21
35577;BME280;21680;52.400;16.920;2023-04-27T11:55:00;101062.44;;;10.40;41.20
35577;BME280;21680;52.400;16.920;2023-04-27T11:57:27;101063.86;;;10.31;41.38
35577;BME280;21680;52.400;16.920;2023-04-27T11:59:55;101064.23;;;10.20;41.37
35577;BME280;21680;52.400;16.920;2023-04-27T12:02:21;101058.95;;;10.07;41.63
35577;BME280;21680;52.400;16.920;2023-04-27T12:04:48;101057.64;;;10.08;41.80
35577;BME280;21680;52.400;16.920;2023-04-27T12:07:13;101057.45;;;10.14;41.82
35577;BME280;21680;52.400;16.920;2023-04-27T12:09:39;101053.63;;;10.17;42.05
35577;BME280;21680;52.400;16.920;2023-04-27T12:12:05;101052.62;;;10.30;42.17
35577;BME280;21680;52.400;16.920;2023-04-27T12:14:30;101048.24;;;10.46;42.19
35577;BME280;21680;52.400;16.920;2023-04-27T12:16:56;101048.98;;;10.60;42.33
35577;BME280;21680;52.400;16.920;2023-04-27T12:19:21;101049.84;;;10.76;42.21
35577;BME280;21680;52.400;16.920;2023-04-27T12:21:49;101049.06;;;10.91;42.12
35577;BME280;21680;52.400;16.920;2023-04-27T12:24:15;101045.65;;;11.06;42.05
35577;BME280;21680;52.400;16.920;2023-04-27T12:26:40;101054.73;;;11.16;41.73
35577;BME280;21680;52.400;16.920;2023-04-27T12:29:05;101052.17;;;11.17;41.44
35577;BME280;21680;52.400;16.920;2023-04-27T12:31:31;101050.98;;;11.20;41.43
35577;BME280;21680;52.400;16.920;2023-04-27T12:33:56;101050.56;;;11.26;41.21
35577;BME280;21680;52.400;16.920;2023-04-27T12:36:21;101055.83;;;11.20;40.89
35577;BME280;21680;52.400;16.920;2023-04-27T12:38:47;101065.60;;;11.03;39.80
35577;BME280;21680;52.400;16.920;2023-04-27T12:41:12;101062.27;;;10.78;39.77
35577;BME280;21680;52.400;16.920;2023-04-27T12:43:37;101056.38;;;10.63;39.89
35577;BME280;21680;52.400;16.920;2023-04-27T12:46:05;101055.61;;;10.60;39.69
35577;BME280;21680;52.400;16.920;2023-04-27T12:48:30;101062.18;;;10.56;40.01
35577;BME280;21680;52.400;16.920;2023-04-27T12:50:57;101053.11;;;10.60;39.94
35577;BME280;21680;52.400;16.920;2023-04-27T12:53:23;101056.54;;;10.59;40.15
35577;BME280;21680;52.400;16.920;2023-04-27T12:55:48;101052.63;;;10.58;40.17
35577;BME280;21680;52.400;16.920;2023-04-27T12:58:13;101057.89;;;10.51;40.10